sensor_id;sensor_type;location;lat;lon;timestamp;P1;durP1;ratioP1;P2;durP2;ratioP2
53652;SDS011;39553;52.954;5.932;2022-11-24T00:01:08;22.83;;;8.90;;
53652;SDS011;39553;52.954;5.932;2022-11-24T00:03:42;25.45;;;9.48;;
53652;SDS011;39553;52.954;5.932;2022-11-24T00:06:10;24.70;;;9.02;;
53652;SDS011;39553;52.954;5.932;2022-11-24T00:08:38;17.33;;;7.65;;
53652;SDS011;39553;52.954;5.932;2022-11-24T00:11:06;25.75;;;8.68;;
53652;SDS011;39553;52.954;5.932;2022-11-24T00:13:34;20.70;;;8.50;;
53652;SDS011;39553;52.954;5.932;2022-11-24T00:16:04;31.92;;;8.70;;
53652;SDS011;39553;52.954;5.932;2022-11-24T00:18:50;21.15;;;8.88;;
53652;SDS011;39553;52.954;5.932;2022-11-24T00:21:17;31.85;;;8.30;;
53652;SDS011;39553;52.954;5.932;2022-11-24T00:23:44;21.65;;;8.88;;
53652;SDS011;39553;52.954;5.932;2022-11-24T00:28:47;32.58;;;8.60;;
53652;SDS011;39553;52.954;5.932;2022-11-24T00:31:16;27.35;;;7.72;;
53652;SDS011;39553;52.954;5.932;2022-11-24T00:33:45;22.27;;;7.90;;
53652;SDS011;39553;52.954;5.932;2022-11-24T00:36:12;23.00;;;8.20;;
53652;SDS011;39553;52.954;5.932;2022-11-24T00:38:39;23.33;;;8.75;;
53652;SDS011;39553;52.954;5.932;2022-11-24T00:41:05;24.23;;;7.68;;
53652;SDS011;39553;52.954;5.932;2022-11-24T00:43:31;24.25;;;8.02;;
53652;SDS011;39553;52.954;5.932;2022-11-24T00:45:57;22.63;;;7.80;;
53652;SDS011;39553;52.954;5.932;2022-11-24T00:48:24;27.52;;;8.05;;
53652;SDS011;39553;52.954;5.932;2022-11-24T00:50:57;21.17;;;6.63;;
53652;SDS011;39553;52.954;5.932;2022-11-24T00:53:23;21.37;;;7.60;;
53652;SDS011;39553;52.954;5.932;2022-11-24T00:55:50;27.55;;;7.68;;
53652;SDS011;39553;52.954;5.932;2022-11-24T00:58:17;27.58;;;7.20;;
53652;SDS011;39553;52.954;5.932;2022-11-24T01:00:43;17.33;;;6.68;;
53652;SDS011;39553;52.954;5.932;2022-11-24T01:03:09;21.35;;;7.18;;
53652;SDS011;39553;52.954;5.932;2022-11-24T01:05:42;23.33;;;6.57;;
53652;SDS011;39553;52.954;5.932;2022-11-24T01:08:09;24.25;;;7.55;;
53652;SDS011;39553;52.954;5.932;2022-11-24T01:10:35;24.52;;;7.40;;
53652;SDS011;39553;52.954;5.932;2022-11-24T01:13:02;22.80;;;6.32;;
53652;SDS011;39553;52.954;5.932;2022-11-24T01:15:29;22.48;;;7.43;;
53652;SDS011;39553;52.954;5.932;2022-11-24T01:17:55;18.98;;;6.53;;
53652;SDS011;39553;52.954;5.932;2022-11-24T01:20:21;14.52;;;5.60;;
53652;SDS011;39553;52.954;5.932;2022-11-24T01:22:48;20.60;;;5.43;;
53652;SDS011;39553;52.954;5.932;2022-11-24T01:25:14;32.53;;;7.10;;
53652;SDS011;39553;52.954;5.932;2022-11-24T01:27:40;27.85;;;5.35;;
53652;SDS011;39553;52.954;5.932;2022-11-24T01:30:06;27.13;;;6.13;;
53652;SDS011;39553;52.954;5.932;2022-11-24T01:32:33;21.85;;;6.50;;
53652;SDS011;39553;52.954;5.932;2022-11-24T01:35:00;15.23;;;5.55;;
53652;SDS011;39553;52.954;5.932;2022-11-24T01:37:26;17.95;;;6.00;;
53652;SDS011;39553;52.954;5.932;2022-11-24T01:39:53;18.30;;;4.85;;
53652;SDS011;39553;52.954;5.932;2022-11-24T01:42:19;20.65;;;5.70;;
53652;SDS011;39553;52.954;5.932;2022-11-24T01:44:46;19.33;;;4.93;;
53652;SDS011;39553;52.954;5.932;2022-11-24T01:47:27;22.27;;;4.75;;
53652;SDS011;39553;52.954;5.932;2022-11-24T01:50:01;27.33;;;5.18;;
53652;SDS011;39553;52.954;5.932;2022-11-24T01:52:31;25.05;;;4.63;;
53652;SDS011;39553;52.954;5.932;2022-11-24T01:55:02;26.70;;;4.85;;
53652;SDS011;39553;52.954;5.932;2022-11-24T01:58:16;21.88;;;4.85;;
53652;SDS011;39553;52.954;5.932;2022-11-24T02:00:29;13.80;;;4.45;;
53652;SDS011;39553;52.954;5.932;2022-11-24T02:02:56;21.63;;;4.68;;
53652;SDS011;39553;52.954;5.932;2022-11-24T02:05:25;27.35;;;5.03;;
53652;SDS011;39553;52.954;5.932;2022-11-24T02:07:58;18.92;;;4.88;;
53652;SDS011;39553;52.954;5.932;2022-11-24T02:10:26;21.13;;;5.18;;
53652;SDS011;39553;52.954;5.932;2022-11-24T02:12:53;19.50;;;5.00;;
53652;SDS011;39553;52.954;5.932;2022-11-24T02:15:20;29.60;;;5.15;;
53652;SDS011;39553;52.954;5.932;2022-11-24T02:17:46;14.73;;;4.43;;
53652;SDS011;39553;52.954;5.932;2022-11-24T02:20:12;17.77;;;4.05;;
53652;SDS011;39553;52.954;5.932;2022-11-24T02:22:50;15.30;;;4.72;;
53652;SDS011;39553;52.954;5.932;2022-11-24T02:25:45;16.02;;;4.70;;
53652;SDS011;39553;52.954;5.932;2022-11-24T02:28:18;19.05;;;5.40;;
53652;SDS011;39553;52.954;5.932;2022-11-24T02:30:46;21.60;;;4.68;;
53652;SDS011;39553;52.954;5.932;2022-11-24T02:33:13;23.10;;;5.00;;
53652;SDS011;39553;52.954;5.932;2022-11-24T02:35:39;26.90;;;4.82;;
53652;SDS011;39553;52.954;5.932;2022-11-24T02:38:05;18.02;;;4.18;;
53652;SDS011;39553;52.954;5.932;2022-11-24T02:40:32;22.60;;;4.97;;
53652;SDS011;39553;52.954;5.932;2022-11-24T02:43:00;13.93;;;3.95;;
53652;SDS011;39553;52.954;5.932;2022-11-24T02:45:32;17.20;;;5.13;;
53652;SDS011;39553;52.954;5.932;2022-11-24T02:47:57;18.80;;;4.82;;
53652;SDS011;39553;52.954;5.932;2022-11-24T02:50:23;12.48;;;4.00;;
53652;SDS011;39553;52.954;5.932;2022-11-24T02:52:49;15.73;;;4.47;;
53652;SDS011;39553;52.954;5.932;2022-11-24T02:55:15;17.90;;;4.50;;
53652;SDS011;39553;52.954;5.932;2022-11-24T02:57:41;14.90;;;4.05;;
53652;SDS011;39553;52.954;5.932;2022-11-24T03:00:07;24.00;;;4.65;;
53652;SDS011;39553;52.954;5.932;2022-11-24T03:02:33;22.77;;;5.75;;
53652;SDS011;39553;52.954;5.932;2022-11-24T03:04:59;22.77;;;5.38;;
53652;SDS011;39553;52.954;5.932;2022-11-24T03:07:25;21.52;;;5.28;;
53652;SDS011;39553;52.954;5.932;2022-11-24T03:09:51;23.05;;;4.35;;
53652;SDS011;39553;52.954;5.932;2022-11-24T03:12:16;22.90;;;4.47;;
53652;SDS011;39553;52.954;5.932;2022-11-24T03:14:42;23.48;;;4.88;;
53652;SDS011;39553;52.954;5.932;2022-11-24T03:17:08;19.20;;;5.03;;
53652;SDS011;39553;52.954;5.932;2022-11-24T03:19:33;18.13;;;4.30;;
53652;SDS011;39553;52.954;5.932;2022-11-24T03:21:59;19.48;;;5.35;;
53652;SDS011;39553;52.954;5.932;2022-11-24T03:24:25;20.33;;;5.88;;
53652;SDS011;39553;52.954;5.932;2022-11-24T03:26:51;16.30;;;4.03;;
53652;SDS011;39553;52.954;5.932;2022-11-24T03:29:16;14.50;;;4.80;;
53652;SDS011;39553;52.954;5.932;2022-11-24T03:31:42;21.05;;;4.00;;
53652;SDS011;39553;52.954;5.932;2022-11-24T03:34:08;19.33;;;4.53;;
53652;SDS011;39553;52.954;5.932;2022-11-24T03:36:34;17.83;;;4.50;;
53652;SDS011;39553;52.954;5.932;2022-11-24T03:38:59;19.60;;;3.42;;
53652;SDS011;39553;52.954;5.932;2022-11-24T03:41:25;20.98;;;4.07;;
53652;SDS011;39553;52.954;5.932;2022-11-24T03:43:51;17.60;;;4.95;;
53652;SDS011;39553;52.954;5.932;2022-11-24T03:46:17;12.95;;;4.18;;
53652;SDS011;39553;52.954;5.932;2022-11-24T03:48:42;20.80;;;4.20;;
53652;SDS011;39553;52.954;5.932;2022-11-24T03:51:08;19.52;;;3.78;;
53652;SDS011;39553;52.954;5.932;2022-11-24T03:53:35;12.35;;;3.80;;
53652;SDS011;39553;52.954;5.932;2022-11-24T03:56:01;11.98;;;3.78;;
53652;SDS011;39553;52.954;5.932;2022-11-24T03:58:27;23.65;;;3.75;;
53652;SDS011;39553;52.954;5.932;2022-11-24T04:00:54;26.15;;;4.15;;
53652;SDS011;39553;52.954;5.932;2022-11-24T04:03:20;17.30;;;4.00;;
53652;SDS011;39553;52.954;5.932;2022-11-24T04:05:47;22.90;;;4.28;;
53652;SDS011;39553;52.954;5.932;2022-11-24T04:08:13;15.80;;;3.60;;
53652;SDS011;39553;52.954;5.932;2022-11-24T04:10:39;24.75;;;5.75;;
53652;SDS011;39553;52.954;5.932;2022-11-24T04:13:13;11.85;;;3.17;;
53652;SDS011;39553;52.954;5.932;2022-11-24T04:15:43;21.83;;;3.83;;
53652;SDS011;39553;52.954;5.932;2022-11-24T04:18:09;15.43;;;4.05;;
53652;SDS011;39553;52.954;5.932;2022-11-24T04:20:36;17.90;;;4.20;;
53652;SDS011;39553;52.954;5.932;2022-11-24T04:23:03;14.65;;;3.72;;
53652;SDS011;39553;52.954;5.932;2022-11-24T04:25:29;22.33;;;4.22;;
53652;SDS011;39553;52.954;5.932;2022-11-24T04:27:54;22.02;;;4.97;;
53652;SDS011;39553;52.954;5.932;2022-11-24T04:30:22;23.10;;;4.68;;
53652;SDS011;39553;52.954;5.932;2022-11-24T04:32:48;17.33;;;3.58;;
53652;SDS011;39553;52.954;5.932;2022-11-24T04:35:14;11.57;;;3.72;;
53652;SDS011;39553;52.954;5.932;2022-11-24T04:37:40;12.80;;;3.45;;
53652;SDS011;39553;52.954;5.932;2022-11-24T04:40:07;16.95;;;3.78;;
53652;SDS011;39553;52.954;5.932;2022-11-24T04:42:33;18.58;;;4.45;;
53652;SDS011;39553;52.954;5.932;2022-11-24T04:44:59;16.27;;;4.68;;
53652;SDS011;39553;52.954;5.932;2022-11-24T04:47:25;21.40;;;3.63;;
53652;SDS011;39553;52.954;5.932;2022-11-24T04:49:52;19.58;;;4.10;;
53652;SDS011;39553;52.954;5.932;2022-11-24T04:52:19;21.73;;;4.57;;
53652;SDS011;39553;52.954;5.932;2022-11-24T04:54:46;25.45;;;4.30;;
53652;SDS011;39553;52.954;5.932;2022-11-24T04:57:31;14.60;;;3.63;;
53652;SDS011;39553;52.954;5.932;2022-11-24T04:59:56;24.23;;;5.10;;
53652;SDS011;39553;52.954;5.932;2022-11-24T05:02:22;12.98;;;4.45;;
53652;SDS011;39553;52.954;5.932;2022-11-24T05:04:48;19.92;;;4.60;;
53652;SDS011;39553;52.954;5.932;2022-11-24T05:07:17;17.90;;;5.10;;
53652;SDS011;39553;52.954;5.932;2022-11-24T05:09:43;17.45;;;4.78;;
53652;SDS011;39553;52.954;5.932;2022-11-24T05:12:28;21.80;;;4.28;;
53652;SDS011;39553;52.954;5.932;2022-11-24T05:14:59;21.58;;;5.28;;
53652;SDS011;39553;52.954;5.932;2022-11-24T05:17:29;26.75;;;4.68;;
53652;SDS011;39553;52.954;5.932;2022-11-24T05:19:56;21.77;;;4.18;;
53652;SDS011;39553;52.954;5.932;2022-11-24T05:22:22;18.67;;;4.30;;
53652;SDS011;39553;52.954;5.932;2022-11-24T05:24:48;16.48;;;4.30;;
53652;SDS011;39553;52.954;5.932;2022-11-24T05:27:14;21.13;;;4.45;;
53652;SDS011;39553;52.954;5.932;2022-11-24T05:29:40;17.30;;;4.35;;
53652;SDS011;39553;52.954;5.932;2022-11-24T05:32:06;13.15;;;4.38;;
53652;SDS011;39553;52.954;5.932;2022-11-24T05:34:31;15.77;;;4.10;;
53652;SDS011;39553;52.954;5.932;2022-11-24T05:37:00;21.98;;;5.07;;
53652;SDS011;39553;52.954;5.932;2022-11-24T05:39:29;20.95;;;4.45;;
53652;SDS011;39553;52.954;5.932;2022-11-24T05:41:56;26.02;;;4.75;;
53652;SDS011;39553;52.954;5.932;2022-11-24T05:44:22;18.92;;;3.95;;
53652;SDS011;39553;52.954;5.932;2022-11-24T05:46:47;12.32;;;3.97;;
53652;SDS011;39553;52.954;5.932;2022-11-24T05:49:13;22.35;;;4.63;;
53652;SDS011;39553;52.954;5.932;2022-11-24T05:51:39;16.30;;;3.63;;
53652;SDS011;39553;52.954;5.932;2022-11-24T05:54:05;16.83;;;4.22;;
53652;SDS011;39553;52.954;5.932;2022-11-24T05:56:30;13.88;;;3.50;;
53652;SDS011;39553;52.954;5.932;2022-11-24T05:58:56;19.05;;;4.20;;
53652;SDS011;39553;52.954;5.932;2022-11-24T06:01:22;16.00;;;4.13;;
53652;SDS011;39553;52.954;5.932;2022-11-24T06:03:48;14.73;;;4.25;;
53652;SDS011;39553;52.954;5.932;2022-11-24T06:06:13;17.33;;;3.53;;
53652;SDS011;39553;52.954;5.932;2022-11-24T06:08:39;7.57;;;2.58;;
53652;SDS011;39553;52.954;5.932;2022-11-24T06:11:05;9.07;;;3.65;;
53652;SDS011;39553;52.954;5.932;2022-11-24T06:13:43;17.13;;;3.47;;
53652;SDS011;39553;52.954;5.932;2022-11-24T06:16:10;9.48;;;2.97;;
53652;SDS011;39553;52.954;5.932;2022-11-24T06:18:37;14.40;;;3.38;;
53652;SDS011;39553;52.954;5.932;2022-11-24T06:21:04;10.75;;;2.55;;
53652;SDS011;39553;52.954;5.932;2022-11-24T06:23:30;16.17;;;3.10;;
53652;SDS011;39553;52.954;5.932;2022-11-24T06:25:57;13.30;;;3.75;;
53652;SDS011;39553;52.954;5.932;2022-11-24T06:28:23;10.85;;;2.88;;
53652;SDS011;39553;52.954;5.932;2022-11-24T06:30:49;15.43;;;3.95;;
53652;SDS011;39553;52.954;5.932;2022-11-24T06:33:16;15.80;;;3.10;;
53652;SDS011;39553;52.954;5.932;2022-11-24T06:35:44;13.77;;;2.85;;
53652;SDS011;39553;52.954;5.932;2022-11-24T06:38:10;17.27;;;3.33;;
53652;SDS011;39553;52.954;5.932;2022-11-24T06:40:38;9.77;;;2.53;;
53652;SDS011;39553;52.954;5.932;2022-11-24T06:43:04;8.82;;;3.05;;
53652;SDS011;39553;52.954;5.932;2022-11-24T06:45:30;16.00;;;4.10;;
53652;SDS011;39553;52.954;5.932;2022-11-24T06:47:55;11.75;;;3.10;;
53652;SDS011;39553;52.954;5.932;2022-11-24T06:50:21;11.23;;;3.70;;
53652;SDS011;39553;52.954;5.932;2022-11-24T06:52:48;9.65;;;3.45;;
53652;SDS011;39553;52.954;5.932;2022-11-24T06:55:14;9.30;;;2.92;;
53652;SDS011;39553;52.954;5.932;2022-11-24T06:57:40;17.77;;;3.55;;
53652;SDS011;39553;52.954;5.932;2022-11-24T07:00:06;9.98;;;3.25;;
53652;SDS011;39553;52.954;5.932;2022-11-24T07:02:35;11.80;;;5.00;;
53652;SDS011;39553;52.954;5.932;2022-11-24T07:05:01;9.18;;;4.07;;
53652;SDS011;39553;52.954;5.932;2022-11-24T07:07:27;18.02;;;4.05;;
53652;SDS011;39553;52.954;5.932;2022-11-24T07:09:53;15.00;;;4.43;;
53652;SDS011;39553;52.954;5.932;2022-11-24T07:12:18;14.55;;;4.22;;
53652;SDS011;39553;52.954;5.932;2022-11-24T07:14:44;10.00;;;4.53;;
53652;SDS011;39553;52.954;5.932;2022-11-24T07:17:10;13.60;;;4.25;;
53652;SDS011;39553;52.954;5.932;2022-11-24T07:19:36;13.45;;;4.03;;
53652;SDS011;39553;52.954;5.932;2022-11-24T07:22:02;13.60;;;4.50;;
53652;SDS011;39553;52.954;5.932;2022-11-24T07:24:28;14.90;;;4.70;;
53652;SDS011;39553;52.954;5.932;2022-11-24T07:26:53;18.10;;;4.57;;
53652;SDS011;39553;52.954;5.932;2022-11-24T07:29:19;18.90;;;4.93;;
53652;SDS011;39553;52.954;5.932;2022-11-24T07:31:45;9.80;;;4.53;;
53652;SDS011;39553;52.954;5.932;2022-11-24T07:34:10;16.98;;;5.78;;
53652;SDS011;39553;52.954;5.932;2022-11-24T07:36:41;13.15;;;5.38;;
53652;SDS011;39553;52.954;5.932;2022-11-24T07:39:09;16.52;;;4.40;;
53652;SDS011;39553;52.954;5.932;2022-11-24T07:41:34;10.63;;;4.53;;
53652;SDS011;39553;52.954;5.932;2022-11-24T07:44:00;11.65;;;5.55;;
53652;SDS011;39553;52.954;5.932;2022-11-24T07:46:27;17.70;;;5.03;;
53652;SDS011;39553;52.954;5.932;2022-11-24T07:48:54;11.95;;;5.07;;
53652;SDS011;39553;52.954;5.932;2022-11-24T07:51:20;20.95;;;7.00;;
53652;SDS011;39553;52.954;5.932;2022-11-24T07:53:46;14.48;;;5.90;;
53652;SDS011;39553;52.954;5.932;2022-11-24T07:56:12;14.13;;;5.43;;
53652;SDS011;39553;52.954;5.932;2022-11-24T07:58:38;15.57;;;5.03;;
53652;SDS011;39553;52.954;5.932;2022-11-24T08:01:11;18.70;;;5.78;;
53652;SDS011;39553;52.954;5.932;2022-11-24T08:03:39;18.45;;;6.75;;
53652;SDS011;39553;52.954;5.932;2022-11-24T08:06:05;13.93;;;5.63;;
53652;SDS011;39553;52.954;5.932;2022-11-24T08:08:31;9.05;;;4.55;;
53652;SDS011;39553;52.954;5.932;2022-11-24T08:10:57;14.25;;;5.50;;
53652;SDS011;39553;52.954;5.932;2022-11-24T08:13:27;15.40;;;6.07;;
53652;SDS011;39553;52.954;5.932;2022-11-24T08:15:53;12.10;;;4.78;;
53652;SDS011;39553;52.954;5.932;2022-11-24T08:18:19;12.30;;;4.05;;
53652;SDS011;39553;52.954;5.932;2022-11-24T08:20:46;13.45;;;4.50;;
53652;SDS011;39553;52.954;5.932;2022-11-24T08:23:12;13.80;;;4.35;;
53652;SDS011;39553;52.954;5.932;2022-11-24T08:25:37;8.25;;;3.33;;
53652;SDS011;39553;52.954;5.932;2022-11-24T08:28:03;8.20;;;3.88;;
53652;SDS011;39553;52.954;5.932;2022-11-24T08:30:29;11.57;;;3.95;;
53652;SDS011;39553;52.954;5.932;2022-11-24T08:32:59;10.63;;;3.70;;
53652;SDS011;39553;52.954;5.932;2022-11-24T08:35:25;10.50;;;3.95;;
53652;SDS011;39553;52.954;5.932;2022-11-24T08:37:52;11.60;;;3.20;;
53652;SDS011;39553;52.954;5.932;2022-11-24T08:40:18;10.65;;;3.17;;
53652;SDS011;39553;52.954;5.932;2022-11-24T08:42:44;11.27;;;3.42;;
53652;SDS011;39553;52.954;5.932;2022-11-24T08:45:10;5.32;;;2.75;;
53652;SDS011;39553;52.954;5.932;2022-11-24T08:47:37;5.50;;;3.28;;
53652;SDS011;39553;52.954;5.932;2022-11-24T08:50:03;11.32;;;3.35;;
53652;SDS011;39553;52.954;5.932;2022-11-24T08:52:29;12.57;;;3.72;;
53652;SDS011;39553;52.954;5.932;2022-11-24T08:54:55;7.85;;;3.63;;
53652;SDS011;39553;52.954;5.932;2022-11-24T08:57:21;9.55;;;3.47;;
53652;SDS011;39553;52.954;5.932;2022-11-24T08:59:47;6.95;;;2.80;;
53652;SDS011;39553;52.954;5.932;2022-11-24T09:02:13;6.97;;;2.08;;
53652;SDS011;39553;52.954;5.932;2022-11-24T09:04:38;10.38;;;2.38;;
53652;SDS011;39553;52.954;5.932;2022-11-24T09:07:04;5.38;;;1.85;;
53652;SDS011;39553;52.954;5.932;2022-11-24T09:09:30;8.88;;;2.17;;
53652;SDS011;39553;52.954;5.932;2022-11-24T09:11:56;4.75;;;1.90;;
53652;SDS011;39553;52.954;5.932;2022-11-24T09:14:22;4.25;;;2.05;;
53652;SDS011;39553;52.954;5.932;2022-11-24T09:16:48;5.95;;;2.22;;
53652;SDS011;39553;52.954;5.932;2022-11-24T09:19:13;7.28;;;2.30;;
53652;SDS011;39553;52.954;5.932;2022-11-24T09:21:39;5.68;;;2.35;;
53652;SDS011;39553;52.954;5.932;2022-11-24T09:24:05;7.72;;;2.42;;
53652;SDS011;39553;52.954;5.932;2022-11-24T09:26:33;6.63;;;2.40;;
53652;SDS011;39553;52.954;5.932;2022-11-24T09:29:01;6.60;;;2.53;;
53652;SDS011;39553;52.954;5.932;2022-11-24T09:31:29;4.15;;;2.33;;
53652;SDS011;39553;52.954;5.932;2022-11-24T09:33:58;5.88;;;2.78;;
53652;SDS011;39553;52.954;5.932;2022-11-24T09:36:24;6.22;;;2.42;;
53652;SDS011;39553;52.954;5.932;2022-11-24T09:38:50;6.15;;;2.97;;
53652;SDS011;39553;52.954;5.932;2022-11-24T09:49:05;7.68;;;3.40;;
53652;SDS011;39553;52.954;5.932;2022-11-24T09:51:37;6.05;;;3.63;;
53652;SDS011;39553;52.954;5.932;2022-11-24T09:54:10;10.35;;;3.55;;
53652;SDS011;39553;52.954;5.932;2022-11-24T09:56:40;14.45;;;4.20;;
53652;SDS011;39553;52.954;5.932;2022-11-24T10:01:46;6.45;;;3.35;;
53652;SDS011;39553;52.954;5.932;2022-11-24T10:04:31;8.48;;;3.55;;
53652;SDS011;39553;52.954;5.932;2022-11-24T10:07:07;7.60;;;3.88;;
53652;SDS011;39553;52.954;5.932;2022-11-24T10:15:56;6.28;;;3.40;;
53652;SDS011;39553;52.954;5.932;2022-11-24T10:19:07;8.27;;;2.95;;
53652;SDS011;39553;52.954;5.932;2022-11-24T10:22:08;13.50;;;3.00;;
53652;SDS011;39553;52.954;5.932;2022-11-24T10:25:17;10.52;;;3.45;;
53652;SDS011;39553;52.954;5.932;2022-11-24T10:27:57;6.07;;;2.95;;
53652;SDS011;39553;52.954;5.932;2022-11-24T10:30:26;10.18;;;2.78;;
53652;SDS011;39553;52.954;5.932;2022-11-24T10:40:43;9.40;;;2.73;;
53652;SDS011;39553;52.954;5.932;2022-11-24T10:43:16;16.20;;;3.10;;
53652;SDS011;39553;52.954;5.932;2022-11-24T10:45:42;9.90;;;2.80;;
53652;SDS011;39553;52.954;5.932;2022-11-24T10:48:21;10.68;;;2.97;;
53652;SDS011;39553;52.954;5.932;2022-11-24T10:50:56;13.48;;;4.43;;
53652;SDS011;39553;52.954;5.932;2022-11-24T10:56:43;8.55;;;3.00;;
53652;SDS011;39553;52.954;5.932;2022-11-24T10:59:20;10.52;;;3.30;;
53652;SDS011;39553;52.954;5.932;2022-11-24T11:01:52;14.68;;;3.67;;
53652;SDS011;39553;52.954;5.932;2022-11-24T11:04:19;10.05;;;3.20;;
53652;SDS011;39553;52.954;5.932;2022-11-24T11:06:46;8.63;;;3.35;;
53652;SDS011;39553;52.954;5.932;2022-11-24T11:09:17;15.48;;;3.83;;
53652;SDS011;39553;52.954;5.932;2022-11-24T11:11:44;7.53;;;2.92;;
53652;SDS011;39553;52.954;5.932;2022-11-24T11:14:28;18.80;;;4.05;;
53652;SDS011;39553;52.954;5.932;2022-11-24T11:16:56;11.38;;;3.17;;
53652;SDS011;39553;52.954;5.932;2022-11-24T11:22:03;11.98;;;3.22;;
53652;SDS011;39553;52.954;5.932;2022-11-24T11:24:38;8.35;;;3.33;;
53652;SDS011;39553;52.954;5.932;2022-11-24T11:27:23;10.32;;;3.10;;
53652;SDS011;39553;52.954;5.932;2022-11-24T11:32:17;9.23;;;2.92;;
53652;SDS011;39553;52.954;5.932;2022-11-24T11:34:51;10.00;;;2.40;;
53652;SDS011;39553;52.954;5.932;2022-11-24T11:37:19;13.02;;;3.13;;
53652;SDS011;39553;52.954;5.932;2022-11-24T11:39:51;8.98;;;2.80;;
53652;SDS011;39553;52.954;5.932;2022-11-24T11:42:29;11.18;;;3.45;;
53652;SDS011;39553;52.954;5.932;2022-11-24T11:45:02;10.18;;;2.45;;
53652;SDS011;39553;52.954;5.932;2022-11-24T11:50:42;9.80;;;2.72;;
53652;SDS011;39553;52.954;5.932;2022-11-24T11:58:31;13.23;;;3.47;;
53652;SDS011;39553;52.954;5.932;2022-11-24T12:11:35;9.88;;;4.10;;
53652;SDS011;39553;52.954;5.932;2022-11-24T12:22:22;10.32;;;2.45;;
53652;SDS011;39553;52.954;5.932;2022-11-24T12:27:25;14.93;;;3.17;;
53652;SDS011;39553;52.954;5.932;2022-11-24T12:30:10;10.18;;;2.35;;
53652;SDS011;39553;52.954;5.932;2022-11-24T12:35:34;11.77;;;3.60;;
53652;SDS011;39553;52.954;5.932;2022-11-24T12:43:34;15.00;;;2.72;;
53652;SDS011;39553;52.954;5.932;2022-11-24T12:53:53;21.60;;;2.95;;
53652;SDS011;39553;52.954;5.932;2022-11-24T12:56:30;10.30;;;2.42;;
53652;SDS011;39553;52.954;5.932;2022-11-24T13:07:44;8.88;;;2.25;;
53652;SDS011;39553;52.954;5.932;2022-11-24T13:12:59;11.05;;;3.22;;
53652;SDS011;39553;52.954;5.932;2022-11-24T13:15:30;9.45;;;2.70;;
53652;SDS011;39553;52.954;5.932;2022-11-24T13:23:58;11.70;;;2.63;;
53652;SDS011;39553;52.954;5.932;2022-11-24T13:29:03;10.93;;;3.08;;
53652;SDS011;39553;52.954;5.932;2022-11-24T13:31:29;7.00;;;2.45;;
53652;SDS011;39553;52.954;5.932;2022-11-24T13:33:58;22.98;;;3.90;;
53652;SDS011;39553;52.954;5.932;2022-11-24T13:38:50;17.17;;;3.70;;
53652;SDS011;39553;52.954;5.932;2022-11-24T13:46:56;17.13;;;3.25;;
53652;SDS011;39553;52.954;5.932;2022-11-24T13:49:23;15.55;;;3.53;;
53652;SDS011;39553;52.954;5.932;2022-11-24T13:52:34;16.67;;;3.92;;
53652;SDS011;39553;52.954;5.932;2022-11-24T13:57:58;16.30;;;3.05;;
53652;SDS011;39553;52.954;5.932;2022-11-24T14:02:59;9.88;;;4.25;;
53652;SDS011;39553;52.954;5.932;2022-11-24T14:05:32;18.60;;;4.00;;
53652;SDS011;39553;52.954;5.932;2022-11-24T14:08:03;13.77;;;3.10;;
53652;SDS011;39553;52.954;5.932;2022-11-24T14:10:33;9.70;;;3.50;;
53652;SDS011;39553;52.954;5.932;2022-11-24T14:15:57;15.48;;;4.05;;
53652;SDS011;39553;52.954;5.932;2022-11-24T14:18:23;11.48;;;3.63;;
53652;SDS011;39553;52.954;5.932;2022-11-24T14:20:50;12.18;;;3.00;;
53652;SDS011;39553;52.954;5.932;2022-11-24T14:23:16;11.73;;;3.00;;
53652;SDS011;39553;52.954;5.932;2022-11-24T14:25:45;8.55;;;3.10;;
53652;SDS011;39553;52.954;5.932;2022-11-24T14:28:26;7.20;;;2.63;;
53652;SDS011;39553;52.954;5.932;2022-11-24T14:31:16;13.70;;;3.65;;
53652;SDS011;39553;52.954;5.932;2022-11-24T14:33:47;15.30;;;3.40;;
53652;SDS011;39553;52.954;5.932;2022-11-24T14:36:14;17.48;;;4.22;;
53652;SDS011;39553;52.954;5.932;2022-11-24T14:38:41;22.95;;;3.67;;
53652;SDS011;39553;52.954;5.932;2022-11-24T14:41:15;10.07;;;3.47;;
53652;SDS011;39553;52.954;5.932;2022-11-24T14:44:02;10.70;;;3.25;;
53652;SDS011;39553;52.954;5.932;2022-11-24T14:46:44;16.70;;;5.22;;
53652;SDS011;39553;52.954;5.932;2022-11-24T14:49:17;16.48;;;4.03;;
53652;SDS011;39553;52.954;5.932;2022-11-24T14:51:53;10.80;;;3.53;;
53652;SDS011;39553;52.954;5.932;2022-11-24T14:54:21;17.90;;;3.42;;
53652;SDS011;39553;52.954;5.932;2022-11-24T14:56:59;12.15;;;3.30;;
53652;SDS011;39553;52.954;5.932;2022-11-24T14:59:27;14.40;;;3.97;;
53652;SDS011;39553;52.954;5.932;2022-11-24T15:01:54;16.17;;;4.15;;
53652;SDS011;39553;52.954;5.932;2022-11-24T15:04:22;23.55;;;5.30;;
53652;SDS011;39553;52.954;5.932;2022-11-24T15:15:05;17.75;;;4.78;;
53652;SDS011;39553;52.954;5.932;2022-11-24T15:17:48;19.35;;;3.92;;
53652;SDS011;39553;52.954;5.932;2022-11-24T15:20:19;21.13;;;4.35;;
53652;SDS011;39553;52.954;5.932;2022-11-24T15:22:50;21.35;;;4.20;;
53652;SDS011;39553;52.954;5.932;2022-11-24T15:25:36;18.63;;;4.60;;
53652;SDS011;39553;52.954;5.932;2022-11-24T15:28:01;19.58;;;4.25;;
53652;SDS011;39553;52.954;5.932;2022-11-24T15:30:27;18.23;;;3.47;;
53652;SDS011;39553;52.954;5.932;2022-11-24T15:32:57;13.23;;;3.78;;
53652;SDS011;39553;52.954;5.932;2022-11-24T15:35:25;15.68;;;3.65;;
53652;SDS011;39553;52.954;5.932;2022-11-24T15:37:55;21.45;;;5.50;;
53652;SDS011;39553;52.954;5.932;2022-11-24T15:40:20;16.83;;;4.40;;
53652;SDS011;39553;52.954;5.932;2022-11-24T15:42:53;21.77;;;4.18;;
53652;SDS011;39553;52.954;5.932;2022-11-24T15:45:21;13.25;;;4.00;;
53652;SDS011;39553;52.954;5.932;2022-11-24T15:47:48;18.92;;;4.60;;
53652;SDS011;39553;52.954;5.932;2022-11-24T15:50:14;16.30;;;4.43;;
53652;SDS011;39553;52.954;5.932;2022-11-24T15:52:40;16.70;;;4.35;;
53652;SDS011;39553;52.954;5.932;2022-11-24T15:55:18;17.25;;;4.32;;
53652;SDS011;39553;52.954;5.932;2022-11-24T15:57:45;34.13;;;5.45;;
53652;SDS011;39553;52.954;5.932;2022-11-24T16:00:12;23.15;;;4.43;;
53652;SDS011;39553;52.954;5.932;2022-11-24T16:02:42;17.50;;;4.30;;
53652;SDS011;39553;52.954;5.932;2022-11-24T16:05:08;22.88;;;4.22;;
53652;SDS011;39553;52.954;5.932;2022-11-24T16:07:36;17.20;;;5.07;;
53652;SDS011;39553;52.954;5.932;2022-11-24T16:10:02;13.48;;;4.70;;
53652;SDS011;39553;52.954;5.932;2022-11-24T16:12:30;25.98;;;5.40;;
53652;SDS011;39553;52.954;5.932;2022-11-24T16:14:56;21.60;;;5.57;;
53652;SDS011;39553;52.954;5.932;2022-11-24T16:17:22;24.40;;;5.25;;
53652;SDS011;39553;52.954;5.932;2022-11-24T16:19:48;16.58;;;4.22;;
53652;SDS011;39553;52.954;5.932;2022-11-24T16:22:13;25.58;;;6.03;;
53652;SDS011;39553;52.954;5.932;2022-11-24T16:24:39;19.73;;;6.25;;
53652;SDS011;39553;52.954;5.932;2022-11-24T16:27:05;21.65;;;5.25;;
53652;SDS011;39553;52.954;5.932;2022-11-24T16:29:30;22.13;;;5.45;;
53652;SDS011;39553;52.954;5.932;2022-11-24T16:31:56;18.52;;;5.40;;
53652;SDS011;39553;52.954;5.932;2022-11-24T16:34:22;18.05;;;5.03;;
53652;SDS011;39553;52.954;5.932;2022-11-24T16:36:48;17.48;;;4.68;;
53652;SDS011;39553;52.954;5.932;2022-11-24T16:39:14;25.00;;;5.70;;
53652;SDS011;39553;52.954;5.932;2022-11-24T16:41:39;20.33;;;5.38;;
53652;SDS011;39553;52.954;5.932;2022-11-24T16:44:05;16.15;;;4.88;;
53652;SDS011;39553;52.954;5.932;2022-11-24T16:46:31;18.23;;;6.00;;
53652;SDS011;39553;52.954;5.932;2022-11-24T16:48:57;22.05;;;6.20;;
53652;SDS011;39553;52.954;5.932;2022-11-24T16:51:27;25.63;;;6.45;;